Time;durP1;ratioP1;P1;durP2;ratioP2;P2;SDS_P1;SDS_P2;PMS_P1;PMS_P2;Temp;Humidity;BMP_temperature;BMP_pressure;BME280_temperature;BME280_humidity;BME280_pressure;Samples;Min_cycle;Max_cycle;Signal;HPM_P1;HPM_P2
2021/10/15 00:01:57;;;;;;;;;47.75;37.25;;;;;13.42;47.76;101553.38;5101448;27;45575;-58
2021/10/15 00:04:22;;;;;;;;;45.00;36.25;;;;;13.40;48.00;101547.28;5101497;27;45452;-58
2021/10/15 00:06:48;;;;;;;;;44.75;38.25;;;;;13.35;47.67;101536.72;5100977;27;46091;-58
2021/10/15 00:09:13;;;;;;;;;44.75;36.50;;;;;13.36;47.96;101534.94;5101289;27;45230;-58
2021/10/15 00:11:38;;;;;;;;;46.00;37.50;;;;;13.34;47.83;101540.25;5101402;27;45228;-59
2021/10/15 00:14:04;;;;;;;;;47.00;39.50;;;;;13.32;48.02;101532.38;5101215;27;45288;-58
2021/10/15 00:16:29;;;;;;;;;45.75;38.25;;;;;13.30;48.12;101539.41;5082591;27;47237;-58
2021/10/15 00:18:55;;;;;;;;;48.75;39.75;;;;;13.30;47.88;101546.47;5101343;27;45258;-58
2021/10/15 00:21:20;;;;;;;;;46.50;39.25;;;;;13.26;47.76;101542.13;5101035;27;45219;-59
2021/10/15 00:23:45;;;;;;;;;47.00;38.25;;;;;13.27;47.91;101549.13;5101154;27;45560;-58
2021/10/15 00:26:11;;;;;;;;;44.25;34.75;;;;;13.24;47.80;101552.69;5100967;27;45437;-59
2021/10/15 00:28:36;;;;;;;;;47.25;40.00;;;;;13.22;47.94;101545.69;5101033;27;45220;-58
2021/10/15 00:31:02;;;;;;;;;43.75;37.00;;;;;13.21;48.08;101536.91;5101183;27;45617;-58
2021/10/15 00:33:27;;;;;;;;;46.75;39.00;;;;;13.19;48.53;101537.81;5100939;27;45257;-58
2021/10/15 00:35:53;;;;;;;;;43.50;37.50;;;;;13.19;48.00;101543.09;5100235;27;45239;-59
2021/10/15 00:38:18;;;;;;;;;46.25;38.00;;;;;13.15;48.37;101531.69;5100950;27;45347;-58
2021/10/15 00:40:44;;;;;;;;;43.75;36.25;;;;;13.15;48.52;101545.75;5101170;27;45327;-58
2021/10/15 00:43:10;;;;;;;;;46.75;39.00;;;;;13.13;48.21;101555.47;5100704;27;45491;-59
2021/10/15 00:45:35;;;;;;;;;44.50;36.75;;;;;13.11;48.49;101551.13;5100721;27;46172;-59
2021/10/15 00:48:00;;;;;;;;;47.50;39.00;;;;;13.11;48.62;101557.25;5100883;27;45326;-58
2021/10/15 00:50:26;;;;;;;;;47.00;37.25;;;;;13.08;48.42;101553.78;5082069;27;45291;-58
2021/10/15 00:52:51;;;;;;;;;43.75;36.50;;;;;13.07;48.26;101552.00;5082350;27;45508;-58
2021/10/15 00:55:17;;;;;;;;;43.50;37.00;;;;;13.04;48.36;101547.66;5100378;27;45600;-58
2021/10/15 00:57:42;;;;;;;;;42.00;36.00;;;;;13.01;48.48;101543.28;5100272;27;45277;-59
2021/10/15 01:00:08;;;;;;;;;43.00;34.00;;;;;12.98;48.47;101543.34;5100315;27;45282;-58
2021/10/15 01:02:35;;;;;;;;;47.50;38.25;;;;;12.98;48.77;101543.34;5100446;27;45627;-58
2021/10/15 01:05:00;;;;;;;;;40.25;36.25;;;;;12.96;48.66;101531.91;5100123;27;45508;-58
2021/10/15 01:07:26;;;;;;;;;49.00;39.00;;;;;12.95;48.80;101538.06;5082035;27;45477;-58
2021/10/15 01:09:52;;;;;;;;;45.25;34.25;;;;;12.93;48.62;101537.25;5100345;27;45290;-58
2021/10/15 01:12:19;;;;;;;;;46.00;36.75;;;;;12.90;48.76;101517.94;5100475;27;45256;-59
2021/10/15 01:14:45;;;;;;;;;45.25;37.00;;;;;12.86;48.84;101513.59;5100301;27;46195;-58
2021/10/15 01:17:10;;;;;;;;;43.75;37.25;;;;;12.88;48.61;101527.63;5100690;27;45528;-58
2021/10/15 01:19:35;;;;;;;;;40.50;35.25;;;;;12.87;48.71;101529.38;5081924;27;45341;-58
2021/10/15 01:22:06;;;;;;;;;41.50;36.50;;;;;12.84;48.74;101527.66;5100169;27;45375;-57
2021/10/15 01:24:32;;;;;;;;;47.00;37.50;;;;;12.82;49.00;101526.78;5100269;27;46818;-58
2021/10/15 01:27:09;;;;;;;;;45.00;39.00;;;;;12.81;48.93;101526.81;5100395;27;45335;-59
2021/10/15 01:29:36;;;;;;;;;46.75;39.00;;;;;12.80;48.89;101520.69;5100252;27;45338;-58
2021/10/15 01:32:02;;;;;;;;;49.25;37.25;;;;;12.76;48.86;101508.41;5100217;27;45455;-57
2021/10/15 01:34:27;;;;;;;;;43.00;36.75;;;;;12.77;48.93;101510.16;5099980;27;46089;-58
2021/10/15 01:36:53;;;;;;;;;38.00;33.25;;;;;12.77;48.89;101509.28;5099931;27;45230;-58
2021/10/15 01:39:18;;;;;;;;;44.25;36.50;;;;;12.73;49.53;101494.38;5100161;27;45796;-58
2021/10/15 01:41:43;;;;;;;;;42.00;37.00;;;;;12.74;48.95;101506.66;5100315;27;45246;-58
2021/10/15 01:44:09;;;;;;;;;45.75;38.00;;;;;12.74;49.25;101496.13;5099688;27;46153;-58
2021/10/15 01:46:35;;;;;;;;;43.25;36.75;;;;;12.71;49.34;101493.53;5100567;27;45231;-59
2021/10/15 01:49:00;;;;;;;;;41.25;35.50;;;;;12.70;49.13;101494.41;5103577;27;45243;-58
2021/10/15 01:51:25;;;;;;;;;41.25;37.00;;;;;12.68;49.32;101487.38;5103610;27;45633;-58
2021/10/15 01:53:51;;;;;;;;;42.25;35.75;;;;;12.65;49.35;101490.06;5103144;27;45971;-60
2021/10/15 01:56:16;;;;;;;;;40.75;34.25;;;;;12.65;49.05;101490.06;5103606;27;45290;-58
2021/10/15 01:58:41;;;;;;;;;42.50;33.75;;;;;12.64;49.19;101487.44;5103117;27;45311;-58
2021/10/15 02:01:07;;;;;;;;;44.75;35.25;;;;;12.60;49.19;101491.91;5103450;27;45617;-58
2021/10/15 02:03:32;;;;;;;;;40.25;34.00;;;;;12.60;49.29;101489.25;5103128;27;46277;-58
2021/10/15 02:05:57;;;;;;;;;38.25;31.75;;;;;12.58;49.33;101491.03;5103159;27;45331;-58
2021/10/15 02:08:23;;;;;;;;;42.75;35.25;;;;;12.55;49.23;101491.03;5103411;27;45284;-58
2021/10/15 02:10:48;;;;;;;;;42.00;34.00;;;;;12.55;49.45;101485.75;5103203;27;45245;-58
2021/10/15 02:13:13;;;;;;;;;40.75;35.00;;;;;12.53;49.49;101487.56;5102760;27;45390;-58
2021/10/15 02:15:39;;;;;;;;;41.75;35.00;;;;;12.50;49.42;101482.31;5103472;27;45338;-58
2021/10/15 02:18:04;;;;;;;;;47.25;34.50;;;;;12.48;49.66;101492.00;5103130;27;45467;-58
2021/10/15 02:20:29;;;;;;;;;41.00;35.00;;;;;12.45;49.42;101481.47;5102949;27;45468;-58
2021/10/15 02:22:55;;;;;;;;;45.25;35.00;;;;;12.44;49.43;101482.38;5102956;27;45403;-59
2021/10/15 02:25:21;;;;;;;;;44.75;34.75;;;;;12.43;49.57;101488.56;5084879;27;45356;-58
2021/10/15 02:27:47;;;;;;;;;43.50;36.00;;;;;12.39;49.63;101485.06;5102855;27;45256;-58
2021/10/15 02:30:14;;;;;;;;;37.00;34.50;;;;;12.37;49.52;101478.06;5103183;27;45207;-58
2021/10/15 02:32:40;;;;;;;;;35.75;33.00;;;;;12.34;49.65;101479.84;5102678;27;46248;-57
2021/10/15 02:35:07;;;;;;;;;43.00;35.50;;;;;12.33;49.64;101469.31;5102593;27;45237;-57
2021/10/15 02:37:33;;;;;;;;;38.25;34.25;;;;;12.31;49.68;101474.59;5102824;27;45318;-58
2021/10/15 02:39:58;;;;;;;;;31.25;29.50;;;;;12.29;49.77;101468.47;5103121;27;45513;-58
2021/10/15 02:42:23;;;;;;;;;43.50;35.50;;;;;12.27;49.73;101469.38;5102398;27;45375;-58
2021/10/15 02:44:49;;;;;;;;;37.75;32.75;;;;;12.26;49.72;101460.56;5102752;27;45304;-58
2021/10/15 02:47:14;;;;;;;;;37.25;32.00;;;;;12.23;49.84;101465.88;5102720;27;45363;-57
2021/10/15 02:49:39;;;;;;;;;42.50;36.50;;;;;12.19;49.89;101453.63;5102457;27;45328;-58
2021/10/15 02:52:05;;;;;;;;;39.00;32.00;;;;;12.21;49.93;101465.03;5102376;27;45384;-57
2021/10/15 02:54:30;;;;;;;;;36.00;32.25;;;;;12.17;49.78;101464.16;5084110;27;45379;-58
2021/10/15 02:56:56;;;;;;;;;39.00;32.75;;;;;12.17;50.00;101469.44;5102462;27;45959;-58
2021/10/15 02:59:21;;;;;;;;;41.25;36.25;;;;;12.16;49.84;101466.81;5083631;27;45569;-58
2021/10/15 03:01:46;;;;;;;;;38.50;30.75;;;;;12.14;49.84;101466.00;5102144;27;46269;-58
2021/10/15 03:04:12;;;;;;;;;37.25;31.25;;;;;12.10;49.80;101448.44;5102522;27;45364;-58
2021/10/15 03:06:37;;;;;;;;;32.75;31.75;;;;;12.11;49.87;101463.38;5102154;27;45294;-58
2021/10/15 03:09:03;;;;;;;;;37.25;33.00;;;;;12.09;49.94;101465.13;5102430;27;45236;-58
2021/10/15 03:11:29;;;;;;;;;34.75;32.25;;;;;12.08;49.99;101464.25;5102079;27;45935;-58
2021/10/15 03:13:54;;;;;;;;;36.75;33.75;;;;;12.06;50.00;101454.63;5102025;27;45260;-58
2021/10/15 03:16:19;;;;;;;;;37.50;32.25;;;;;12.03;49.88;101455.53;5083846;27;45224;-58
2021/10/15 03:18:45;;;;;;;;;29.50;29.25;;;;;12.02;49.95;101449.41;5102649;27;45204;-58
2021/10/15 03:21:10;;;;;;;;;35.00;32.00;;;;;12.00;49.91;101456.44;5101677;27;45271;-59
2021/10/15 03:23:36;;;;;;;;;38.75;33.75;;;;;11.99;50.05;101448.56;5102018;27;45540;-58
2021/10/15 03:26:02;;;;;;;;;35.75;31.00;;;;;11.96;50.01;101446.81;5102228;27;45476;-58
2021/10/15 03:28:28;;;;;;;;;34.25;31.75;;;;;11.96;50.10;101438.91;5101903;27;45601;-58
2021/10/15 03:30:53;;;;;;;;;33.75;32.75;;;;;11.94;49.99;101445.91;5101894;27;46481;-58
2021/10/15 03:33:18;;;;;;;;;43.50;34.00;;;;;11.91;49.95;101443.31;5101922;27;45315;-58
2021/10/15 03:35:44;;;;;;;;;38.00;32.25;;;;;11.90;50.10;101438.03;5101810;27;45352;-58
2021/10/15 03:38:09;;;;;;;;;37.00;31.75;;;;;11.89;50.09;101437.19;5101929;27;45562;-58
2021/10/15 03:40:35;;;;;;;;;36.50;33.50;;;;;11.89;50.11;101442.44;5101519;27;46266;-58
2021/10/15 03:43:00;;;;;;;;;38.25;33.75;;;;;11.81;50.21;101436.34;5101706;27;45343;-57
2021/10/15 03:45:25;;;;;;;;;36.50;31.75;;;;;11.83;50.11;101439.88;5101915;27;45351;-58
2021/10/15 03:47:51;;;;;;;;;33.75;31.75;;;;;11.83;50.22;101440.72;5101816;27;45303;-58
2021/10/15 03:50:16;;;;;;;;;36.75;31.75;;;;;11.79;50.34;101435.53;5101257;27;46792;-58
2021/10/15 03:52:41;;;;;;;;;38.75;31.75;;;;;11.81;50.28;101444.25;5101804;27;45235;-58
2021/10/15 03:55:09;;;;;;;;;34.25;31.75;;;;;11.79;50.27;101448.69;5101601;27;45952;-58
2021/10/15 03:57:35;;;;;;;;;33.75;32.75;;;;;11.77;49.93;101443.41;5101440;27;45162;-58
2021/10/15 04:00:03;;;;;;;;;32.50;31.25;;;;;11.77;50.32;101447.81;5101200;27;47312;-58
2021/10/15 04:02:29;;;;;;;;;40.00;33.25;;;;;11.75;50.39;101444.31;5101482;27;45399;-57
2021/10/15 04:04:54;;;;;;;;;36.00;33.25;;;;;11.72;50.30;101442.56;5079422;28;45974;-58
2021/10/15 04:07:19;;;;;;;;;34.00;31.00;;;;;11.73;50.24;101443.47;5101286;27;45481;-58
2021/10/15 04:09:45;;;;;;;;;32.50;31.50;;;;;11.68;50.36;101433.84;5082252;27;47127;-58
2021/10/15 04:12:10;;;;;;;;;35.25;31.75;;;;;11.67;50.27;101432.09;5101166;27;45241;-58
2021/10/15 04:14:35;;;;;;;;;34.50;30.50;;;;;11.67;50.34;101437.38;5083173;27;45253;-58
2021/10/15 04:17:01;;;;;;;;;31.00;30.75;;;;;11.65;50.47;101433.88;5101266;27;45228;-59
2021/10/15 04:19:26;;;;;;;;;40.25;35.75;;;;;11.66;50.46;101445.25;5100958;27;45346;-58
2021/10/15 04:21:51;;;;;;;;;36.00;33.75;;;;;11.63;50.45;101440.88;5101022;27;45299;-58
2021/10/15 04:24:17;;;;;;;;;35.75;32.25;;;;;11.62;50.48;101430.38;5101313;27;45293;-58
2021/10/15 04:26:42;;;;;;;;;30.25;25.75;;;;;11.61;50.48;101426.00;5101119;27;45205;-58
2021/10/15 04:29:07;;;;;;;;;34.75;31.50;;;;;11.62;50.49;101433.00;5100880;27;45383;-59
2021/10/15 04:31:33;;;;;;;;;39.25;34.75;;;;;11.60;50.60;101426.91;5101147;27;45239;-58
2021/10/15 04:33:59;;;;;;;;;64.25;49.25;;;;;11.59;50.44;101433.03;5101192;27;45229;-59
2021/10/15 04:36:24;;;;;;;;;59.75;46.75;;;;;11.57;50.71;101414.59;5100671;27;45567;-58
2021/10/15 04:38:49;;;;;;;;;33.25;31.00;;;;;11.54;50.50;101409.38;5101050;27;46196;-58
2021/10/15 04:41:15;;;;;;;;;39.00;31.75;;;;;11.55;50.59;101409.34;5100696;27;45220;-58
2021/10/15 04:43:40;;;;;;;;;36.75;32.00;;;;;11.55;50.68;101411.13;5100752;27;45351;-58
2021/10/15 04:46:05;;;;;;;;;34.75;31.75;;;;;11.54;50.64;101414.63;5100821;27;45576;-58
2021/10/15 04:48:31;;;;;;;;;37.00;32.50;;;;;11.53;50.59;101411.16;5082465;27;45414;-55
2021/10/15 04:50:57;;;;;;;;;32.75;32.00;;;;;11.52;50.71;101405.88;5097796;27;45860;-58
2021/10/15 04:53:22;;;;;;;;;32.75;30.00;;;;;11.52;50.70;101403.25;5100834;27;45296;-58
2021/10/15 04:55:49;;;;;;;;;36.00;31.75;;;;;11.52;50.84;101406.75;5100659;27;45328;-58
2021/10/15 04:58:14;;;;;;;;;35.75;30.25;;;;;11.51;50.75;101412.91;5100357;27;46171;-57
2021/10/15 05:00:40;;;;;;;;;34.75;29.00;;;;;11.52;50.77;101403.25;5082044;27;45359;-57
2021/10/15 05:03:05;;;;;;;;;35.25;29.25;;;;;11.51;50.68;101397.13;5082316;27;45303;-57
2021/10/15 05:05:30;;;;;;;;;34.75;32.00;;;;;11.51;50.77;101393.63;5100156;27;45528;-57
2021/10/15 05:07:57;;;;;;;;;29.50;26.50;;;;;11.51;50.71;101404.16;5100632;27;45356;-59
2021/10/15 05:10:25;;;;;;;;;31.50;30.75;;;;;11.51;50.72;101398.88;5082007;27;45343;-57
2021/10/15 05:12:52;;;;;;;;;32.75;29.50;;;;;11.51;50.88;101401.50;5090616;27;45269;-56
2021/10/15 05:15:18;;;;;;;;;37.50;32.25;;;;;11.51;50.81;101401.50;5100438;27;45474;-57
2021/10/15 05:17:44;;;;;;;;;39.25;33.75;;;;;11.50;50.78;101408.53;5100363;27;45562;-57
2021/10/15 05:20:14;;;;;;;;;40.25;32.50;;;;;11.50;50.92;101392.72;5098682;27;45513;-57
2021/10/15 05:22:39;;;;;;;;;38.00;32.00;;;;;11.50;50.97;101391.88;5101190;27;45298;-58
2021/10/15 05:25:06;;;;;;;;;41.00;32.25;;;;;11.49;50.93;101390.13;5103913;27;45472;-58
2021/10/15 05:27:32;;;;;;;;;40.25;35.50;;;;;11.48;50.93;101385.72;5103825;27;46175;-57
2021/10/15 05:29:58;;;;;;;;;37.75;32.50;;;;;11.48;50.88;101391.88;5085430;27;45361;-57
2021/10/15 05:32:24;;;;;;;;;37.25;33.50;;;;;11.47;50.99;101391.88;5104025;27;45327;-58
2021/10/15 05:34:50;;;;;;;;;45.50;36.75;;;;;11.45;51.11;101393.66;5103534;27;45420;-58
2021/10/15 05:37:16;;;;;;;;;50.25;37.50;;;;;11.44;50.86;101399.81;5085374;27;47665;-57
2021/10/15 05:39:43;;;;;;;;;46.75;36.50;;;;;11.43;50.90;101398.91;5101510;27;45240;-59
2021/10/15 05:42:08;;;;;;;;;37.75;34.25;;;;;11.42;51.12;101404.19;5103595;27;45213;-58
2021/10/15 05:44:34;;;;;;;;;41.50;34.75;;;;;11.38;51.01;101396.34;5103505;27;45480;-58
2021/10/15 05:47:03;;;;;;;;;43.25;35.25;;;;;11.41;51.16;101394.56;5103459;27;45178;-58
2021/10/15 05:49:30;;;;;;;;;45.00;36.00;;;;;11.41;51.25;101397.19;5103278;27;45397;-58
2021/10/15 05:52:03;;;;;;;;;41.25;37.25;;;;;11.37;51.26;101391.94;5085314;27;45276;-58
2021/10/15 05:54:34;;;;;;;;;53.00;41.75;;;;;11.37;51.29;101401.59;5103522;27;46404;-57
2021/10/15 05:59:27;;;;;;;;;57.00;45.25;;;;;11.32;51.33;101406.91;5103161;27;45335;-57
2021/10/15 06:01:56;;;;;;;;;41.00;35.75;;;;;11.32;51.39;101409.53;5103381;27;45307;-57
2021/10/15 06:08:28;;;;;;;;;50.50;41.00;;;;;11.32;51.34;101406.00;5103180;27;46121;-56
2021/10/15 06:15:35;;;;;;;;;49.75;42.00;;;;;11.32;51.54;101408.66;5103317;27;45231;-58
2021/10/15 06:18:10;;;;;;;;;63.25;50.50;;;;;11.32;51.63;101413.91;5102112;27;46626;-56
2021/10/15 06:20:36;;;;;;;;;66.75;53.50;;;;;11.31;51.56;101413.03;5082138;27;45235;-57
2021/10/15 06:23:02;;;;;;;;;68.50;53.75;;;;;11.32;51.48;101420.06;5082482;27;45450;-58
2021/10/15 06:25:27;;;;;;;;;78.00;64.33;;;;;11.33;51.54;101418.28;5082505;27;45485;-56
2021/10/15 06:27:58;;;;;;;;;83.00;71.33;;;;;11.32;51.53;101416.53;5082284;27;46193;-56
2021/10/15 06:30:24;;;;;;;;;82.00;69.67;;;;;11.31;51.21;101413.03;5082549;27;45269;-56
2021/10/15 06:32:49;;;;;;;;;80.33;68.67;;;;;11.32;51.64;101420.06;5081994;27;45526;-56
2021/10/15 06:35:14;;;;;;;;;81.67;69.00;;;;;11.33;51.55;101426.19;5082152;27;45489;-55
2021/10/15 06:37:40;;;;;;;;;81.67;67.33;;;;;11.34;51.72;101427.94;5080235;27;47083;-56
2021/10/15 06:40:06;;;;;;;;;79.33;66.67;;;;;11.35;51.66;101427.91;5102879;27;45281;-56
2021/10/15 06:42:31;;;;;;;;;80.33;69.67;;;;;11.37;51.59;101428.78;5102658;27;45782;-58
2021/10/15 06:44:56;;;;;;;;;84.00;74.00;;;;;11.38;51.62;101422.66;5102825;27;45456;-59
2021/10/15 06:47:23;;;;;;;;;79.00;70.33;;;;;11.40;51.61;101427.03;5102403;27;45320;-56
2021/10/15 06:49:48;;;;;;;;;76.33;63.67;;;;;11.41;51.67;101424.38;5102557;27;45361;-56
2021/10/15 06:52:13;;;;;;;;;79.67;68.67;;;;;11.43;51.67;101422.59;5102596;27;45322;-56
2021/10/15 06:54:38;;;;;;;;;80.00;69.67;;;;;11.45;51.76;101420.84;5102651;27;45450;-56
2021/10/15 06:57:04;;;;;;;;;80.67;73.00;;;;;11.47;51.77;101426.09;5102154;27;45388;-56
2021/10/15 06:59:30;;;;;;;;;84.33;76.33;;;;;11.48;51.72;101425.22;5083868;27;45503;-56
2021/10/15 07:01:55;;;;;;;;;81.33;67.33;;;;;11.45;51.68;101420.84;5102410;27;45444;-56
2021/10/15 07:04:21;;;;;;;;;70.00;54.75;;;;;11.50;51.78;101423.44;5102184;27;45295;-56
2021/10/15 07:06:46;;;;;;;;;63.75;51.00;;;;;11.52;51.81;101424.28;5102144;27;46081;-57
2021/10/15 07:09:11;;;;;;;;;61.75;49.25;;;;;11.53;51.90;101424.31;5083973;27;45836;-57
2021/10/15 07:11:38;;;;;;;;;58.50;47.00;;;;;11.55;51.95;101421.66;5102416;27;45295;-57
2021/10/15 07:14:05;;;;;;;;;59.00;46.00;;;;;11.57;52.14;101419.00;5102265;27;45524;-56
2021/10/15 07:16:31;;;;;;;;;58.75;45.75;;;;;11.51;51.90;101412.03;5101982;27;46294;-56
2021/10/15 07:18:56;;;;;;;;;56.00;46.50;;;;;11.61;51.87;101426.88;5102305;27;45512;-56
2021/10/15 07:21:21;;;;;;;;;57.50;45.00;;;;;11.61;51.81;101429.50;5101948;27;45527;-57
2021/10/15 07:23:47;;;;;;;;;61.75;47.75;;;;;11.65;52.00;101430.38;5102097;27;45331;-57
2021/10/15 07:26:12;;;;;;;;;61.75;48.75;;;;;11.65;51.97;101433.88;5083430;27;45899;-57
2021/10/15 07:28:37;;;;;;;;;65.75;50.50;;;;;11.67;51.91;101440.00;5101858;27;45315;-58
2021/10/15 07:31:03;;;;;;;;;60.75;48.00;;;;;11.70;51.97;101442.59;5101996;27;45344;-57
2021/10/15 07:33:29;;;;;;;;;63.75;49.00;;;;;11.71;51.94;101446.97;5083567;27;45489;-56
2021/10/15 07:35:55;;;;;;;;;61.50;49.25;;;;;11.70;51.91;101439.97;5101519;27;46377;-58
2021/10/15 07:38:20;;;;;;;;;60.75;48.75;;;;;11.77;52.00;101448.66;5101775;27;45288;-57
2021/10/15 07:40:46;;;;;;;;;62.50;49.25;;;;;11.78;51.93;101449.56;5101906;27;45253;-56
2021/10/15 07:43:11;;;;;;;;;55.50;45.00;;;;;11.83;52.00;101455.66;5062892;28;45401;-58
2021/10/15 07:45:36;;;;;;;;;62.25;49.00;;;;;11.85;51.95;101462.66;5094982;27;45224;-57
2021/10/15 07:48:02;;;;;;;;;64.75;50.75;;;;;11.86;52.00;101456.53;5101602;27;45371;-57
2021/10/15 07:50:28;;;;;;;;;63.75;48.00;;;;;11.92;51.97;101466.13;5101489;27;45216;-58
2021/10/15 07:52:54;;;;;;;;;65.75;50.75;;;;;11.97;52.06;101460.84;5083250;27;45537;-57
2021/10/15 07:55:19;;;;;;;;;65.50;50.00;;;;;11.99;51.96;101465.22;5101312;27;46030;-58
2021/10/15 07:57:44;;;;;;;;;68.25;52.00;;;;;12.05;52.10;101460.78;5101600;27;45491;-58
2021/10/15 08:00:11;;;;;;;;;63.75;49.75;;;;;12.08;52.13;101459.00;5101516;27;45254;-57
2021/10/15 08:02:37;;;;;;;;;59.50;48.25;;;;;12.14;52.12;101455.44;5101450;27;45524;-58
2021/10/15 08:05:04;;;;;;;;;62.00;48.25;;;;;12.18;52.17;101459.78;5100868;27;46021;-58
2021/10/15 08:07:29;;;;;;;;;61.25;48.00;;;;;12.21;52.24;101453.63;5101282;27;45342;-58
2021/10/15 08:09:55;;;;;;;;;56.75;47.50;;;;;12.28;52.22;101457.94;5101122;27;45433;-57
2021/10/15 08:12:20;;;;;;;;;56.00;45.00;;;;;12.36;52.15;101461.38;5101256;27;45357;-57
2021/10/15 08:14:45;;;;;;;;;54.00;45.00;;;;;12.43;52.13;101459.56;5100970;27;46013;-59
2021/10/15 08:17:11;;;;;;;;;58.50;46.25;;;;;12.49;51.91;101457.72;5082885;27;45355;-59
2021/10/15 08:19:38;;;;;;;;;58.25;48.50;;;;;12.56;52.21;101455.88;5082761;27;45354;-58
2021/10/15 08:22:04;;;;;;;;;53.75;45.00;;;;;12.64;52.18;101461.06;5101077;27;45556;-59
2021/10/15 08:24:29;;;;;;;;;58.00;46.00;;;;;12.72;52.18;101461.00;5101015;27;45237;-59
2021/10/15 08:26:55;;;;;;;;;58.25;46.50;;;;;12.80;52.08;101464.41;5101016;27;45220;-58
2021/10/15 08:29:22;;;;;;;;;57.75;45.25;;;;;12.87;52.35;101459.91;5101112;27;45307;-59
2021/10/15 08:31:49;;;;;;;;;56.00;45.25;;;;;12.98;52.00;101460.66;5101164;27;45295;-59
2021/10/15 08:34:17;;;;;;;;;60.75;48.00;;;;;13.04;52.32;101460.56;5100409;27;46127;-59
2021/10/15 08:36:44;;;;;;;;;53.75;45.25;;;;;13.14;52.24;101458.69;5100999;27;45266;-59
2021/10/15 08:39:09;;;;;;;;;56.25;45.50;;;;;13.23;52.27;101470.91;5100735;27;45291;-58
2021/10/15 08:41:35;;;;;;;;;59.75;46.50;;;;;13.31;52.07;101466.41;5100727;27;45246;-58
2021/10/15 08:44:00;;;;;;;;;57.00;47.00;;;;;13.39;52.33;101463.69;5100297;27;45933;-59
2021/10/15 08:46:26;;;;;;;;;58.25;47.00;;;;;13.46;52.09;101460.94;5100775;27;45229;-59
2021/10/15 08:48:52;;;;;;;;;56.00;46.00;;;;;13.55;52.11;101469.63;5100650;27;45442;-59
2021/10/15 08:51:20;;;;;;;;;58.00;48.25;;;;;13.62;52.05;101472.13;5100510;27;45422;-58
2021/10/15 08:53:52;;;;;;;;;60.25;48.50;;;;;13.70;52.22;101461.44;5100292;27;46197;-59
2021/10/15 08:56:19;;;;;;;;;58.00;47.00;;;;;13.79;51.98;101463.06;5100334;27;45355;-59
2021/10/15 08:58:48;;;;;;;;;63.25;50.25;;;;;13.86;51.91;101469.13;5100242;27;45481;-59
2021/10/15 09:01:14;;;;;;;;;60.50;47.00;;;;;13.93;52.32;101481.34;5100566;27;45402;-59
2021/10/15 09:03:40;;;;;;;;;61.50;48.75;;;;;14.00;51.99;101476.81;5081786;27;46338;-59
2021/10/15 09:06:07;;;;;;;;;56.50;46.75;;;;;14.08;52.29;101478.44;5100288;27;45295;-58
2021/10/15 09:08:48;;;;;;;;;59.50;49.00;;;;;14.17;51.90;101468.63;5100375;27;45280;-58
2021/10/15 09:11:34;;;;;;;;;64.25;49.25;;;;;14.24;52.08;101470.25;5100457;27;45569;-59
2021/10/15 09:14:08;;;;;;;;;54.25;43.50;;;;;14.33;52.41;101475.38;5100164;27;45272;-58
2021/10/15 09:17:09;;;;;;;;;60.75;47.50;;;;;14.43;52.24;101474.28;5081929;27;45433;-58
2021/10/15 09:19:37;;;;;;;;;57.75;47.00;;;;;14.52;52.03;101475.88;5036542;28;45351;-58
2021/10/15 09:22:04;;;;;;;;;59.75;47.25;;;;;14.59;51.94;101482.81;5086786;27;45486;-58
2021/10/15 09:25:10;;;;;;;;;57.00;46.00;;;;;14.71;52.29;101479.06;5100034;27;45257;-59
2021/10/15 09:27:41;;;;;;;;;58.00;47.50;;;;;14.80;52.18;101483.31;5039338;28;45296;-59
2021/10/15 09:30:11;;;;;;;;;62.25;49.50;;;;;14.90;52.01;101486.66;5086764;27;45361;-59
2021/10/15 09:32:39;;;;;;;;;58.50;47.00;;;;;14.92;51.62;101469.84;5099987;27;45632;-59
2021/10/15 09:35:07;;;;;;;;;62.75;50.25;;;;;15.05;52.08;101480.19;5099912;27;45346;-59
2021/10/15 09:37:38;;;;;;;;;61.25;47.25;;;;;15.17;52.13;101479.91;5100154;27;45157;-56
2021/10/15 09:40:11;;;;;;;;;58.25;45.75;;;;;15.28;51.91;101487.59;5100618;27;45326;-57
2021/10/15 09:42:52;;;;;;;;;71.75;57.00;;;;;15.38;52.06;101485.63;5099826;27;45475;-57
2021/10/15 09:45:23;;;;;;;;;53.50;44.75;;;;;15.49;52.15;101493.34;5099992;27;46991;-58
2021/10/15 09:47:54;;;;;;;;;64.25;51.00;;;;;15.60;51.75;101500.13;5099810;27;45347;-58
2021/10/15 09:50:30;;;;;;;;;59.50;47.50;;;;;15.72;51.64;101495.44;5099922;27;45395;-58
2021/10/15 09:53:00;;;;;;;;;59.50;46.50;;;;;15.82;52.05;101493.50;5099983;27;45422;-58
2021/10/15 09:55:34;;;;;;;;;59.75;47.50;;;;;15.94;51.86;101493.19;5099850;27;46145;-58
2021/10/15 09:58:17;;;;;;;;;58.25;47.50;;;;;16.08;51.54;101499.00;5082410;27;45347;-59
2021/10/15 10:00:44;;;;;;;;;57.75;46.75;;;;;16.18;51.73;101501.44;5081612;27;45277;-58
2021/10/15 10:03:10;;;;;;;;;62.25;50.75;;;;;16.29;51.32;101502.03;5099843;27;45494;-58
2021/10/15 10:05:36;;;;;;;;;59.25;48.50;;;;;16.41;51.35;101499.06;5099341;27;45284;-58
2021/10/15 10:08:03;;;;;;;;;58.50;47.00;;;;;16.49;51.21;101495.31;5100820;27;45378;-58
2021/10/15 10:10:32;;;;;;;;;63.50;51.25;;;;;16.63;51.17;101508.22;5103233;27;45317;-59
2021/10/15 10:12:59;;;;;;;;;62.50;50.50;;;;;16.74;51.18;101508.78;5102955;27;45319;-58
2021/10/15 10:15:28;;;;;;;;;58.00;47.75;;;;;16.85;51.21;101504.03;5103011;27;46150;-59
2021/10/15 10:18:16;;;;;;;;;60.75;48.50;;;;;16.99;51.05;101502.81;5103037;27;45296;-59
2021/10/15 10:20:54;;;;;;;;;66.50;51.00;;;;;17.14;51.31;101501.50;5102919;27;45232;-59
2021/10/15 10:23:37;;;;;;;;;54.25;45.00;;;;;17.28;51.13;101496.66;5084714;27;45528;-58
2021/10/15 10:26:06;;;;;;;;;57.50;46.50;;;;;17.41;50.78;101491.84;5081212;28;48257;-59
2021/10/15 10:28:32;;;;;;;;;62.75;49.25;;;;;17.55;50.99;101492.25;5089336;27;45249;-59
2021/10/15 10:31:03;;;;;;;;;58.75;48.25;;;;;17.70;50.86;101495.38;5084699;27;45263;-59
2021/10/15 10:33:30;;;;;;;;;54.50;45.25;;;;;17.80;50.81;101494.16;5102788;27;45410;-59
2021/10/15 10:36:11;;;;;;;;;57.50;47.25;;;;;17.95;50.55;101498.13;5102560;27;45562;-59
2021/10/15 10:38:38;;;;;;;;;55.50;46.50;;;;;18.07;50.34;101502.16;5081143;28;45378;-59
2021/10/15 10:41:06;;;;;;;;;59.00;48.50;;;;;18.16;50.11;101496.53;5099688;27;45244;-59
2021/10/15 10:43:35;;;;;;;;;55.75;45.50;;;;;18.28;50.55;101502.34;5102481;27;45232;-59
2021/10/15 10:46:16;;;;;;;;;57.50;47.75;;;;;18.40;50.25;101499.28;5102693;27;45468;-59
2021/10/15 10:48:49;;;;;;;;;55.75;45.00;;;;;18.50;50.17;101500.69;5102831;27;45303;-58
2021/10/15 10:51:30;;;;;;;;;58.25;47.00;;;;;18.60;50.39;101495.91;5102642;27;45528;-59
2021/10/15 10:54:07;;;;;;;;;59.00;49.00;;;;;18.70;50.09;101493.75;5102415;27;45367;-59
2021/10/15 10:56:38;;;;;;;;;52.50;44.50;;;;;18.81;49.93;101498.69;5102466;27;45974;-59
2021/10/15 10:59:20;;;;;;;;;57.00;46.00;;;;;18.89;50.11;101493.94;5101965;27;45311;-59
2021/10/15 11:01:52;;;;;;;;;59.75;48.50;;;;;19.00;49.57;101501.59;5102384;27;45354;-59
2021/10/15 11:04:42;;;;;;;;;64.75;49.25;;;;;19.10;49.69;101494.97;5102014;27;45476;-59
2021/10/15 11:07:08;;;;;;;;;57.50;47.50;;;;;19.19;49.56;101498.22;5102146;27;45394;-59
2021/10/15 11:09:43;;;;;;;;;61.75;48.00;;;;;19.30;49.57;101493.34;5102242;27;45220;-59
2021/10/15 11:12:30;;;;;;;;;57.75;46.25;;;;;19.41;49.85;101492.94;5102349;27;45169;-59
2021/10/15 11:14:57;;;;;;;;;57.50;46.25;;;;;19.53;49.64;101497.75;5091091;27;45197;-59
2021/10/15 11:17:28;;;;;;;;;64.50;51.00;;;;;19.65;49.73;101491.09;5083836;27;47262;-59
2021/10/15 11:20:20;;;;;;;;;56.00;45.75;;;;;19.80;49.06;101492.25;5101787;27;45247;-59
2021/10/15 11:22:52;;;;;;;;;60.25;48.75;;;;;19.92;49.05;101493.56;5080485;28;45478;-59